sensor_id;sensor_type;location;lat;lon;timestamp;pressure;altitude;pressure_sealevel;temperature;humidity
65880;BME280;52661;51.364;6.054;2023-06-26T00:01:29;100866.94;;;25.09;93.87
65880;BME280;52661;51.364;6.054;2023-06-26T00:03:56;100875.69;;;25.02;93.66
65880;BME280;52661;51.364;6.054;2023-06-26T00:06:21;100871.56;;;24.97;93.98
65880;BME280;52661;51.364;6.054;2023-06-26T00:08:50;100873.00;;;24.93;94.32
65880;BME280;52661;51.364;6.054;2023-06-26T00:11:15;100869.19;;;24.90;95.09
65880;BME280;52661;51.364;6.054;2023-06-26T00:13:41;100865.84;;;24.86;95.08
65880;BME280;52661;51.364;6.054;2023-06-26T00:16:07;100871.50;;;24.77;95.54
65880;BME280;52661;51.364;6.054;2023-06-26T00:18:32;100871.00;;;24.79;95.40
65880;BME280;52661;51.364;6.054;2023-06-26T00:20:57;100867.41;;;24.73;95.38
65880;BME280;52661;51.364;6.054;2023-06-26T00:23:23;100874.69;;;24.70;95.03
65880;BME280;52661;51.364;6.054;2023-06-26T00:25:48;100863.09;;;24.72;94.96
65880;BME280;52661;51.364;6.054;2023-06-26T00:28:13;100865.50;;;24.64;95.18
65880;BME280;52661;51.364;6.054;2023-06-26T00:30:38;100861.06;;;24.72;95.36
65880;BME280;52661;51.364;6.054;2023-06-26T00:33:04;100865.09;;;24.71;95.70
65880;BME280;52661;51.364;6.054;2023-06-26T00:35:29;100859.38;;;24.60;95.72
65880;BME280;52661;51.364;6.054;2023-06-26T00:37:54;100863.13;;;24.42;97.14
65880;BME280;52661;51.364;6.054;2023-06-26T00:40:20;100851.38;;;24.33;97.54
65880;BME280;52661;51.364;6.054;2023-06-26T00:42:45;100846.41;;;24.37;98.10
65880;BME280;52661;51.364;6.054;2023-06-26T00:45:10;100848.16;;;24.34;98.50
65880;BME280;52661;51.364;6.054;2023-06-26T00:47:37;100852.63;;;24.32;98.04
65880;BME280;52661;51.364;6.054;2023-06-26T00:50:02;100849.09;;;24.17;99.00
65880;BME280;52661;51.364;6.054;2023-06-26T00:52:28;100843.34;;;24.20;98.96
65880;BME280;52661;51.364;6.054;2023-06-26T00:54:54;100852.81;;;24.14;99.17
65880;BME280;52661;51.364;6.054;2023-06-26T00:57:20;100854.38;;;24.15;99.52
65880;BME280;52661;51.364;6.054;2023-06-26T00:59:45;100849.75;;;24.12;99.65
65880;BME280;52661;51.364;6.054;2023-06-26T01:02:11;100844.50;;;24.14;98.99
65880;BME280;52661;51.364;6.054;2023-06-26T01:04:36;100847.09;;;24.17;98.75
65880;BME280;52661;51.364;6.054;2023-06-26T01:07:02;100842.66;;;24.11;98.42
65880;BME280;52661;51.364;6.054;2023-06-26T01:09:29;100842.81;;;24.16;98.27
65880;BME280;52661;51.364;6.054;2023-06-26T01:11:55;100839.50;;;24.03;98.37
65880;BME280;52661;51.364;6.054;2023-06-26T01:14:21;100836.72;;;24.03;98.07
65880;BME280;52661;51.364;6.054;2023-06-26T01:16:47;100841.22;;;24.00;98.20
65880;BME280;52661;51.364;6.054;2023-06-26T01:19:20;100837.03;;;24.05;98.08
65880;BME280;52661;51.364;6.054;2023-06-26T01:22:17;100844.81;;;24.16;97.22
65880;BME280;52661;51.364;6.054;2023-06-26T01:24:44;100840.03;;;24.16;97.35
65880;BME280;52661;51.364;6.054;2023-06-26T01:27:11;100841.50;;;24.02;97.99
65880;BME280;52661;51.364;6.054;2023-06-26T01:29:37;100848.78;;;24.00;98.27
65880;BME280;52661;51.364;6.054;2023-06-26T01:32:03;100836.72;;;24.03;98.06
65880;BME280;52661;51.364;6.054;2023-06-26T01:34:29;100845.06;;;24.03;98.15
65880;BME280;52661;51.364;6.054;2023-06-26T01:36:54;100853.94;;;23.92;98.80
65880;BME280;52661;51.364;6.054;2023-06-26T01:39:20;100858.13;;;23.88;99.36
65880;BME280;52661;51.364;6.054;2023-06-26T01:41:45;100857.09;;;23.85;99.34
65880;BME280;52661;51.364;6.054;2023-06-26T01:44:28;100862.41;;;23.74;100.00
65880;BME280;52661;51.364;6.054;2023-06-26T01:46:58;100860.31;;;23.69;100.00
65880;BME280;52661;51.364;6.054;2023-06-26T01:57:17;100868.97;;;23.47;97.20
65880;BME280;52661;51.364;6.054;2023-06-26T01:59:44;100872.53;;;23.39;95.04
65880;BME280;52661;51.364;6.054;2023-06-26T02:02:10;100871.25;;;23.49;93.98
65880;BME280;52661;51.364;6.054;2023-06-26T02:04:35;100879.88;;;23.51;93.13
65880;BME280;52661;51.364;6.054;2023-06-26T02:07:02;100881.94;;;23.41;92.29
65880;BME280;52661;51.364;6.054;2023-06-26T02:09:27;100885.09;;;23.49;90.59
65880;BME280;52661;51.364;6.054;2023-06-26T02:11:53;100887.78;;;23.43;90.72
65880;BME280;52661;51.364;6.054;2023-06-26T02:14:18;100882.06;;;23.38;91.79
65880;BME280;52661;51.364;6.054;2023-06-26T02:16:43;100882.25;;;23.43;91.58
65880;BME280;52661;51.364;6.054;2023-06-26T02:19:09;100890.66;;;23.49;92.19
65880;BME280;52661;51.364;6.054;2023-06-26T02:21:34;100890.53;;;23.43;92.82
65880;BME280;52661;51.364;6.054;2023-06-26T02:24:01;100899.78;;;23.40;93.32
65880;BME280;52661;51.364;6.054;2023-06-26T02:26:26;100900.00;;;23.28;94.54
65880;BME280;52661;51.364;6.054;2023-06-26T02:28:52;100902.34;;;23.20;94.37
65880;BME280;52661;51.364;6.054;2023-06-26T02:31:17;100903.28;;;23.17;94.88
65880;BME280;52661;51.364;6.054;2023-06-26T02:33:42;100906.53;;;23.16;95.03
65880;BME280;52661;51.364;6.054;2023-06-26T02:36:10;100910.72;;;23.11;95.14
65880;BME280;52661;51.364;6.054;2023-06-26T02:38:35;100908.75;;;23.02;95.14
65880;BME280;52661;51.364;6.054;2023-06-26T02:41:01;100912.81;;;22.92;95.72
65880;BME280;52661;51.364;6.054;2023-06-26T02:43:26;100907.72;;;22.91;95.39
65880;BME280;52661;51.364;6.054;2023-06-26T02:45:52;100913.69;;;22.98;95.21
65880;BME280;52661;51.364;6.054;2023-06-26T02:48:17;100909.44;;;22.88;95.47
65880;BME280;52661;51.364;6.054;2023-06-26T02:50:42;100913.94;;;22.86;96.15
65880;BME280;52661;51.364;6.054;2023-06-26T02:53:11;100921.91;;;22.84;96.96
65880;BME280;52661;51.364;6.054;2023-06-26T02:55:36;100926.06;;;22.88;97.08
65880;BME280;52661;51.364;6.054;2023-06-26T02:58:02;100927.75;;;22.86;97.52
65880;BME280;52661;51.364;6.054;2023-06-26T03:00:27;100933.31;;;22.77;98.56
65880;BME280;52661;51.364;6.054;2023-06-26T03:02:55;100925.97;;;22.74;98.05
65880;BME280;52661;51.364;6.054;2023-06-26T03:05:20;100926.88;;;22.62;98.02
65880;BME280;52661;51.364;6.054;2023-06-26T03:07:46;100925.22;;;22.55;98.14
65880;BME280;52661;51.364;6.054;2023-06-26T03:10:11;100929.53;;;22.47;98.05
65880;BME280;52661;51.364;6.054;2023-06-26T03:12:37;100930.63;;;22.49;97.17
65880;BME280;52661;51.364;6.054;2023-06-26T03:15:02;100932.63;;;22.49;96.45
65880;BME280;52661;51.364;6.054;2023-06-26T03:17:28;100937.53;;;22.45;97.02
65880;BME280;52661;51.364;6.054;2023-06-26T03:19:53;100944.50;;;22.31;97.98
65880;BME280;52661;51.364;6.054;2023-06-26T03:22:18;100947.72;;;22.30;98.68
65880;BME280;52661;51.364;6.054;2023-06-26T03:24:44;100956.00;;;22.30;98.40
65880;BME280;52661;51.364;6.054;2023-06-26T03:27:10;100961.25;;;22.28;98.02
65880;BME280;52661;51.364;6.054;2023-06-26T03:29:36;100968.75;;;22.27;97.36
65880;BME280;52661;51.364;6.054;2023-06-26T03:32:01;100963.53;;;22.29;97.12
65880;BME280;52661;51.364;6.054;2023-06-26T03:34:26;100971.84;;;22.11;96.53
65880;BME280;52661;51.364;6.054;2023-06-26T03:36:52;100963.06;;;22.22;96.04
65880;BME280;52661;51.364;6.054;2023-06-26T03:39:17;100964.63;;;22.04;95.40
65880;BME280;52661;51.364;6.054;2023-06-26T03:41:42;100965.84;;;22.03;95.18
65880;BME280;52661;51.364;6.054;2023-06-26T03:44:08;100969.38;;;22.04;94.71
65880;BME280;52661;51.364;6.054;2023-06-26T03:46:33;100967.19;;;21.90;94.39
65880;BME280;52661;51.364;6.054;2023-06-26T03:48:58;100961.38;;;21.88;93.82
65880;BME280;52661;51.364;6.054;2023-06-26T03:51:23;100973.34;;;21.85;93.85
65880;BME280;52661;51.364;6.054;2023-06-26T03:53:49;100969.66;;;21.79;93.83
65880;BME280;52661;51.364;6.054;2023-06-26T03:56:14;100981.16;;;21.68;94.60
65880;BME280;52661;51.364;6.054;2023-06-26T03:58:40;100984.53;;;21.72;95.13
65880;BME280;52661;51.364;6.054;2023-06-26T04:01:05;100985.75;;;21.71;95.54
65880;BME280;52661;51.364;6.054;2023-06-26T04:03:30;100986.69;;;21.68;96.55
65880;BME280;52661;51.364;6.054;2023-06-26T04:05:56;100986.81;;;21.65;97.13
65880;BME280;52661;51.364;6.054;2023-06-26T04:08:23;100987.56;;;21.56;97.52
65880;BME280;52661;51.364;6.054;2023-06-26T04:10:50;100991.56;;;21.55;97.90
65880;BME280;52661;51.364;6.054;2023-06-26T04:13:17;100987.75;;;21.62;97.43
65880;BME280;52661;51.364;6.054;2023-06-26T04:15:42;100992.97;;;21.59;96.90
65880;BME280;52661;51.364;6.054;2023-06-26T04:18:07;100996.66;;;21.66;96.86
65880;BME280;52661;51.364;6.054;2023-06-26T04:20:33;100988.81;;;21.64;96.62
65880;BME280;52661;51.364;6.054;2023-06-26T04:23:00;100988.03;;;21.54;96.00
65880;BME280;52661;51.364;6.054;2023-06-26T04:25:25;100988.31;;;21.47;95.83
65880;BME280;52661;51.364;6.054;2023-06-26T04:27:54;101000.25;;;21.35;97.30
65880;BME280;52661;51.364;6.054;2023-06-26T04:30:19;100997.38;;;21.48;97.20
65880;BME280;52661;51.364;6.054;2023-06-26T04:32:45;100995.34;;;21.30;97.55
65880;BME280;52661;51.364;6.054;2023-06-26T04:35:10;101000.09;;;21.39;97.02
65880;BME280;52661;51.364;6.054;2023-06-26T04:37:36;100999.81;;;21.37;97.52
65880;BME280;52661;51.364;6.054;2023-06-26T04:40:02;101009.88;;;21.31;97.52
65880;BME280;52661;51.364;6.054;2023-06-26T04:42:29;101012.56;;;21.43;98.05
65880;BME280;52661;51.364;6.054;2023-06-26T04:44:54;101019.56;;;21.35;98.63
65880;BME280;52661;51.364;6.054;2023-06-26T04:47:19;101020.53;;;21.41;98.97
65880;BME280;52661;51.364;6.054;2023-06-26T04:49:45;101026.19;;;21.38;99.21
65880;BME280;52661;51.364;6.054;2023-06-26T04:52:14;101024.94;;;21.30;100.00
65880;BME280;52661;51.364;6.054;2023-06-26T04:54:39;101025.16;;;21.44;100.00
65880;BME280;52661;51.364;6.054;2023-06-26T04:57:05;101039.09;;;21.50;100.00
65880;BME280;52661;51.364;6.054;2023-06-26T04:59:31;101038.47;;;21.46;100.00
65880;BME280;52661;51.364;6.054;2023-06-26T05:01:56;101041.53;;;21.39;100.00
65880;BME280;52661;51.364;6.054;2023-06-26T05:04:22;101040.13;;;21.34;100.00
65880;BME280;52661;51.364;6.054;2023-06-26T05:06:48;101036.69;;;21.21;100.00
65880;BME280;52661;51.364;6.054;2023-06-26T05:09:13;101025.16;;;21.14;100.00
65880;BME280;52661;51.364;6.054;2023-06-26T05:11:39;101030.25;;;21.24;100.00
65880;BME280;52661;51.364;6.054;2023-06-26T05:14:04;101030.25;;;21.24;100.00
65880;BME280;52661;51.364;6.054;2023-06-26T05:16:33;101032.59;;;21.26;100.00
65880;BME280;52661;51.364;6.054;2023-06-26T05:18:59;101031.81;;;21.25;100.00
65880;BME280;52661;51.364;6.054;2023-06-26T05:21:24;101036.84;;;21.18;100.00
65880;BME280;52661;51.364;6.054;2023-06-26T05:23:52;101037.84;;;21.42;100.00
65880;BME280;52661;51.364;6.054;2023-06-26T05:26:20;101044.56;;;21.32;100.00
65880;BME280;52661;51.364;6.054;2023-06-26T05:28:46;101042.09;;;21.25;100.00
65880;BME280;52661;51.364;6.054;2023-06-26T05:31:14;101049.16;;;21.26;100.00
65880;BME280;52661;51.364;6.054;2023-06-26T05:33:43;101049.09;;;21.17;100.00
65880;BME280;52661;51.364;6.054;2023-06-26T05:36:09;101054.25;;;21.36;100.00
65880;BME280;52661;51.364;6.054;2023-06-26T05:38:34;101051.50;;;21.36;100.00
65880;BME280;52661;51.364;6.054;2023-06-26T05:41:00;101048.69;;;21.27;100.00
65880;BME280;52661;51.364;6.054;2023-06-26T05:43:25;101041.59;;;21.17;100.00
65880;BME280;52661;51.364;6.054;2023-06-26T05:45:51;101055.88;;;21.25;100.00
65880;BME280;52661;51.364;6.054;2023-06-26T05:48:16;101054.66;;;21.26;100.00
65880;BME280;52661;51.364;6.054;2023-06-26T05:50:42;101058.06;;;21.30;100.00
65880;BME280;52661;51.364;6.054;2023-06-26T05:53:08;101051.16;;;21.34;100.00
65880;BME280;52661;51.364;6.054;2023-06-26T05:55:33;101053.91;;;21.25;100.00
65880;BME280;52661;51.364;6.054;2023-06-26T05:57:59;101053.72;;;21.20;100.00
65880;BME280;52661;51.364;6.054;2023-06-26T06:00:25;101054.13;;;21.40;100.00
65880;BME280;52661;51.364;6.054;2023-06-26T06:02:51;101064.78;;;21.59;100.00
65880;BME280;52661;51.364;6.054;2023-06-26T06:05:22;101071.63;;;21.46;100.00
65880;BME280;52661;51.364;6.054;2023-06-26T06:07:48;101076.78;;;21.35;100.00
65880;BME280;52661;51.364;6.054;2023-06-26T06:10:13;101074.94;;;21.10;100.00
65880;BME280;52661;51.364;6.054;2023-06-26T06:12:38;101094.03;;;21.17;100.00
65880;BME280;52661;51.364;6.054;2023-06-26T06:15:04;101093.25;;;21.17;100.00
65880;BME280;52661;51.364;6.054;2023-06-26T06:17:30;101102.66;;;21.19;100.00
65880;BME280;52661;51.364;6.054;2023-06-26T06:19:55;101105.03;;;21.39;100.00
65880;BME280;52661;51.364;6.054;2023-06-26T06:22:21;101097.00;;;21.23;100.00
65880;BME280;52661;51.364;6.054;2023-06-26T06:24:48;101114.25;;;21.14;100.00
65880;BME280;52661;51.364;6.054;2023-06-26T06:27:13;101110.53;;;21.08;100.00
65880;BME280;52661;51.364;6.054;2023-06-26T06:29:39;101105.00;;;21.08;100.00
65880;BME280;52661;51.364;6.054;2023-06-26T06:32:05;101119.38;;;21.25;100.00
65880;BME280;52661;51.364;6.054;2023-06-26T06:34:31;101123.31;;;21.45;100.00
65880;BME280;52661;51.364;6.054;2023-06-26T06:36:56;101124.16;;;21.55;100.00
65880;BME280;52661;51.364;6.054;2023-06-26T06:39:21;101130.66;;;21.70;100.00
65880;BME280;52661;51.364;6.054;2023-06-26T06:41:47;101131.75;;;21.73;100.00
65880;BME280;52661;51.364;6.054;2023-06-26T06:44:12;101133.09;;;21.68;100.00
65880;BME280;52661;51.364;6.054;2023-06-26T06:46:37;101150.28;;;21.63;100.00
65880;BME280;52661;51.364;6.054;2023-06-26T06:49:03;101146.22;;;21.86;100.00
65880;BME280;52661;51.364;6.054;2023-06-26T06:51:29;101146.91;;;21.99;100.00
65880;BME280;52661;51.364;6.054;2023-06-26T06:53:54;101157.78;;;21.93;100.00
65880;BME280;52661;51.364;6.054;2023-06-26T06:56:20;101160.50;;;21.84;100.00
65880;BME280;52661;51.364;6.054;2023-06-26T06:58:45;101153.06;;;21.72;100.00
65880;BME280;52661;51.364;6.054;2023-06-26T07:01:12;101151.81;;;21.64;100.00
65880;BME280;52661;51.364;6.054;2023-06-26T07:03:38;101150.88;;;21.67;100.00
65880;BME280;52661;51.364;6.054;2023-06-26T07:06:03;101157.25;;;21.77;100.00
65880;BME280;52661;51.364;6.054;2023-06-26T07:08:29;101151.72;;;21.77;100.00
65880;BME280;52661;51.364;6.054;2023-06-26T07:10:55;101153.16;;;21.90;100.00
65880;BME280;52661;51.364;6.054;2023-06-26T07:13:22;101156.22;;;21.92;100.00
65880;BME280;52661;51.364;6.054;2023-06-26T07:15:47;101165.34;;;22.02;100.00
65880;BME280;52661;51.364;6.054;2023-06-26T07:18:13;101171.16;;;21.95;100.00
65880;BME280;52661;51.364;6.054;2023-06-26T07:20:38;101179.31;;;21.98;100.00
65880;BME280;52661;51.364;6.054;2023-06-26T07:23:04;101176.84;;;22.00;100.00
65880;BME280;52661;51.364;6.054;2023-06-26T07:25:29;101178.53;;;22.07;100.00
65880;BME280;52661;51.364;6.054;2023-06-26T07:27:54;101186.56;;;22.14;100.00
65880;BME280;52661;51.364;6.054;2023-06-26T07:30:20;101187.81;;;22.22;100.00
65880;BME280;52661;51.364;6.054;2023-06-26T07:32:45;101196.41;;;22.15;99.49
65880;BME280;52661;51.364;6.054;2023-06-26T07:35:11;101202.97;;;22.08;100.00
65880;BME280;52661;51.364;6.054;2023-06-26T07:37:36;101215.56;;;21.79;100.00
65880;BME280;52661;51.364;6.054;2023-06-26T07:40:02;101223.03;;;21.91;100.00
65880;BME280;52661;51.364;6.054;2023-06-26T07:42:27;101219.75;;;21.83;100.00
65880;BME280;52661;51.364;6.054;2023-06-26T07:44:53;101217.28;;;21.85;100.00
65880;BME280;52661;51.364;6.054;2023-06-26T07:47:18;101213.09;;;22.02;100.00
65880;BME280;52661;51.364;6.054;2023-06-26T07:49:43;101223.59;;;22.17;99.49
65880;BME280;52661;51.364;6.054;2023-06-26T07:52:09;101217.59;;;22.18;98.52
65880;BME280;52661;51.364;6.054;2023-06-26T07:54:37;101225.50;;;22.47;99.29
65880;BME280;52661;51.364;6.054;2023-06-26T07:57:04;101210.31;;;22.51;98.75
65880;BME280;52661;51.364;6.054;2023-06-26T07:59:34;101216.41;;;22.28;97.92
65880;BME280;52661;51.364;6.054;2023-06-26T08:02:00;101234.38;;;22.33;100.00
65880;BME280;52661;51.364;6.054;2023-06-26T08:04:27;101228.28;;;22.38;100.00
65880;BME280;52661;51.364;6.054;2023-06-26T08:06:56;101227.84;;;22.57;100.00
65880;BME280;52661;51.364;6.054;2023-06-26T08:09:25;101234.47;;;22.60;97.15
65880;BME280;52661;51.364;6.054;2023-06-26T08:11:50;101238.75;;;22.61;98.84
65880;BME280;52661;51.364;6.054;2023-06-26T08:14:16;101233.66;;;22.41;98.20
65880;BME280;52661;51.364;6.054;2023-06-26T08:16:43;101235.78;;;22.37;97.69
65880;BME280;52661;51.364;6.054;2023-06-26T08:19:13;101234.88;;;22.31;98.25
65880;BME280;52661;51.364;6.054;2023-06-26T08:21:39;101229.97;;;22.44;96.83
65880;BME280;52661;51.364;6.054;2023-06-26T08:24:05;101229.19;;;22.44;97.84
65880;BME280;52661;51.364;6.054;2023-06-26T08:26:30;101230.94;;;22.60;98.19
65880;BME280;52661;51.364;6.054;2023-06-26T08:28:55;101232.16;;;22.49;98.70
65880;BME280;52661;51.364;6.054;2023-06-26T08:31:21;101233.63;;;22.32;97.85
65880;BME280;52661;51.364;6.054;2023-06-26T08:33:46;101235.72;;;22.68;97.40
65880;BME280;52661;51.364;6.054;2023-06-26T08:36:12;101247.75;;;22.92;97.17
65880;BME280;52661;51.364;6.054;2023-06-26T08:38:38;101247.81;;;22.62;96.23
65880;BME280;52661;51.364;6.054;2023-06-26T08:41:06;101248.75;;;22.58;95.72
65880;BME280;52661;51.364;6.054;2023-06-26T08:43:31;101250.97;;;22.82;97.61
65880;BME280;52661;51.364;6.054;2023-06-26T08:45:57;101244.22;;;23.01;98.28
65880;BME280;52661;51.364;6.054;2023-06-26T08:48:23;101248.84;;;22.86;93.06
65880;BME280;52661;51.364;6.054;2023-06-26T08:50:55;101254.81;;;22.93;95.14
65880;BME280;52661;51.364;6.054;2023-06-26T08:53:44;101251.16;;;22.96;93.60
65880;BME280;52661;51.364;6.054;2023-06-26T08:56:15;101255.75;;;22.99;92.72
65880;BME280;52661;51.364;6.054;2023-06-26T08:58:42;101249.28;;;22.75;93.46
65880;BME280;52661;51.364;6.054;2023-06-26T09:01:08;101269.19;;;22.61;95.54
65880;BME280;52661;51.364;6.054;2023-06-26T09:03:34;101267.13;;;22.74;94.36
65880;BME280;52661;51.364;6.054;2023-06-26T09:05:59;101260.06;;;23.00;94.53
65880;BME280;52661;51.364;6.054;2023-06-26T09:08:25;101269.16;;;23.10;90.78
65880;BME280;52661;51.364;6.054;2023-06-26T09:10:51;101270.69;;;22.93;93.22
65880;BME280;52661;51.364;6.054;2023-06-26T09:13:18;101271.69;;;22.68;91.44
65880;BME280;52661;51.364;6.054;2023-06-26T09:15:44;101278.78;;;22.69;93.00
65880;BME280;52661;51.364;6.054;2023-06-26T09:18:11;101272.03;;;22.97;93.85
65880;BME280;52661;51.364;6.054;2023-06-26T09:20:36;101273.63;;;23.08;90.03
65880;BME280;52661;51.364;6.054;2023-06-26T09:23:02;101276.97;;;23.12;89.01
65880;BME280;52661;51.364;6.054;2023-06-26T09:25:29;101278.22;;;23.20;86.69
65880;BME280;52661;51.364;6.054;2023-06-26T09:27:55;101275.75;;;23.13;86.15
65880;BME280;52661;51.364;6.054;2023-06-26T09:30:21;101290.22;;;23.35;88.73
65880;BME280;52661;51.364;6.054;2023-06-26T09:32:46;101298.22;;;23.15;85.64
65880;BME280;52661;51.364;6.054;2023-06-26T09:35:12;101300.66;;;22.85;87.40
65880;BME280;52661;51.364;6.054;2023-06-26T09:37:38;101304.28;;;22.64;88.26
65880;BME280;52661;51.364;6.054;2023-06-26T09:40:04;101312.94;;;22.35;89.39
65880;BME280;52661;51.364;6.054;2023-06-26T09:42:30;101302.69;;;22.54;90.58
65880;BME280;52661;51.364;6.054;2023-06-26T09:44:56;101309.88;;;22.91;88.40
65880;BME280;52661;51.364;6.054;2023-06-26T09:47:22;101309.59;;;22.89;85.25
65880;BME280;52661;51.364;6.054;2023-06-26T09:49:47;101307.84;;;22.83;83.01
65880;BME280;52661;51.364;6.054;2023-06-26T09:52:14;101311.22;;;22.69;81.56
65880;BME280;52661;51.364;6.054;2023-06-26T09:54:42;101318.41;;;22.66;81.56
65880;BME280;52661;51.364;6.054;2023-06-26T09:59:36;101323.53;;;22.77;80.62
65880;BME280;52661;51.364;6.054;2023-06-26T10:02:02;101325.75;;;23.00;81.42
65880;BME280;52661;51.364;6.054;2023-06-26T10:04:30;101323.44;;;23.17;80.62
65880;BME280;52661;51.364;6.054;2023-06-26T10:06:56;101322.81;;;23.03;75.46
65880;BME280;52661;51.364;6.054;2023-06-26T10:09:23;101325.75;;;23.00;72.50
65880;BME280;52661;51.364;6.054;2023-06-26T10:12:03;101324.22;;;23.17;71.47
65880;BME280;52661;51.364;6.054;2023-06-26T10:14:34;101320.41;;;23.42;74.22
65880;BME280;52661;51.364;6.054;2023-06-26T10:17:03;101318.38;;;23.70;72.89
65880;BME280;52661;51.364;6.054;2023-06-26T10:19:30;101329.81;;;23.53;67.86
65880;BME280;52661;51.364;6.054;2023-06-26T10:21:58;101318.81;;;23.23;65.69
65880;BME280;52661;51.364;6.054;2023-06-26T10:24:24;101331.31;;;23.27;70.01
65880;BME280;52661;51.364;6.054;2023-06-26T10:27:02;101327.63;;;23.21;69.05
65880;BME280;52661;51.364;6.054;2023-06-26T10:29:30;101328.53;;;23.18;67.15
65880;BME280;52661;51.364;6.054;2023-06-26T10:31:58;101335.00;;;23.24;61.69
65880;BME280;52661;51.364;6.054;2023-06-26T10:34:25;101335.63;;;23.28;59.35
65880;BME280;52661;51.364;6.054;2023-06-26T10:37:00;101341.59;;;23.27;60.81
65880;BME280;52661;51.364;6.054;2023-06-26T10:39:27;101338.38;;;23.37;63.54
65880;BME280;52661;51.364;6.054;2023-06-26T10:41:55;101332.72;;;23.68;63.15
65880;BME280;52661;51.364;6.054;2023-06-26T10:44:21;101341.31;;;23.70;58.11
65880;BME280;52661;51.364;6.054;2023-06-26T10:46:54;101349.19;;;23.44;58.34
65880;BME280;52661;51.364;6.054;2023-06-26T10:49:24;101351.94;;;23.63;55.93
65880;BME280;52661;51.364;6.054;2023-06-26T10:51:50;101347.03;;;23.76;57.01
65880;BME280;52661;51.364;6.054;2023-06-26T10:54:19;101352.88;;;23.87;59.55
65880;BME280;52661;51.364;6.054;2023-06-26T10:56:54;101362.06;;;24.02;57.25
65880;BME280;52661;51.364;6.054;2023-06-26T10:59:27;101355.75;;;24.20;59.07
65880;BME280;52661;51.364;6.054;2023-06-26T11:02:00;101364.38;;;24.03;54.43
65880;BME280;52661;51.364;6.054;2023-06-26T11:04:50;101371.16;;;24.12;50.96
65880;BME280;52661;51.364;6.054;2023-06-26T11:07:24;101364.84;;;23.84;49.15
65880;BME280;52661;51.364;6.054;2023-06-26T11:09:55;101372.44;;;23.65;52.61
65880;BME280;52661;51.364;6.054;2023-06-26T11:15:11;101385.03;;;23.66;51.62
65880;BME280;52661;51.364;6.054;2023-06-26T11:17:38;101372.44;;;23.65;50.77
65880;BME280;52661;51.364;6.054;2023-06-26T11:20:09;101369.53;;;23.69;51.97
65880;BME280;52661;51.364;6.054;2023-06-26T11:22:35;101372.91;;;23.73;52.71
65880;BME280;52661;51.364;6.054;2023-06-26T11:25:01;101372.69;;;24.03;53.22
65880;BME280;52661;51.364;6.054;2023-06-26T11:27:46;101370.56;;;23.80;51.55
65880;BME280;52661;51.364;6.054;2023-06-26T11:30:23;101378.28;;;23.67;52.19
65880;BME280;52661;51.364;6.054;2023-06-26T11:32:48;101382.75;;;23.74;51.37
65880;BME280;52661;51.364;6.054;2023-06-26T11:35:22;101378.84;;;23.98;50.33
65880;BME280;52661;51.364;6.054;2023-06-26T11:37:56;101384.25;;;24.11;51.50
65880;BME280;52661;51.364;6.054;2023-06-26T11:40:22;101389.00;;;24.29;51.50
65880;BME280;52661;51.364;6.054;2023-06-26T11:42:52;101398.41;;;24.22;49.78
65880;BME280;52661;51.364;6.054;2023-06-26T11:45:19;101397.34;;;24.01;49.92
65880;BME280;52661;51.364;6.054;2023-06-26T11:47:44;101384.09;;;24.15;49.03
65880;BME280;52661;51.364;6.054;2023-06-26T11:50:17;101390.88;;;24.14;50.39
65880;BME280;52661;51.364;6.054;2023-06-26T11:52:43;101402.59;;;24.18;51.30
65880;BME280;52661;51.364;6.054;2023-06-26T11:55:09;101399.66;;;24.03;50.04
65880;BME280;52661;51.364;6.054;2023-06-26T11:57:36;101411.53;;;23.85;50.49
65880;BME280;52661;51.364;6.054;2023-06-26T12:00:11;101407.53;;;23.86;53.23
65880;BME280;52661;51.364;6.054;2023-06-26T12:02:37;101415.84;;;24.14;52.56
65880;BME280;52661;51.364;6.054;2023-06-26T12:05:03;101426.16;;;23.95;49.96
65880;BME280;52661;51.364;6.054;2023-06-26T12:07:30;101428.94;;;24.04;50.79
65880;BME280;52661;51.364;6.054;2023-06-26T12:09:56;101442.31;;;24.33;52.66
65880;BME280;52661;51.364;6.054;2023-06-26T12:12:23;101443.06;;;24.42;48.97
65880;BME280;52661;51.364;6.054;2023-06-26T12:14:51;101451.81;;;24.59;47.65
65880;BME280;52661;51.364;6.054;2023-06-26T12:17:16;101447.78;;;24.60;47.94
65880;BME280;52661;51.364;6.054;2023-06-26T12:19:46;101461.03;;;24.65;48.06
65880;BME280;52661;51.364;6.054;2023-06-26T12:22:15;101454.88;;;24.61;45.88
65880;BME280;52661;51.364;6.054;2023-06-26T12:24:42;101453.94;;;24.64;44.39
65880;BME280;52661;51.364;6.054;2023-06-26T12:27:18;101448.66;;;24.75;44.32
65880;BME280;52661;51.364;6.054;2023-06-26T12:29:51;101450.47;;;24.36;42.97
65880;BME280;52661;51.364;6.054;2023-06-26T12:32:18;101444.47;;;24.38;44.33
65880;BME280;52661;51.364;6.054;2023-06-26T12:34:48;101440.59;;;24.35;47.85
65880;BME280;52661;51.364;6.054;2023-06-26T12:37:14;101456.97;;;24.33;45.49
65880;BME280;52661;51.364;6.054;2023-06-26T12:39:52;101438.34;;;23.79;44.72
65880;BME280;52661;51.364;6.054;2023-06-26T12:42:23;101444.66;;;24.25;48.04
65880;BME280;52661;51.364;6.054;2023-06-26T12:44:50;101446.78;;;24.03;48.88
65880;BME280;52661;51.364;6.054;2023-06-26T12:47:16;101449.72;;;23.99;50.07
65880;BME280;52661;51.364;6.054;2023-06-26T12:49:44;101450.97;;;24.26;51.09
65880;BME280;52661;51.364;6.054;2023-06-26T12:52:14;101443.50;;;24.50;48.67
65880;BME280;52661;51.364;6.054;2023-06-26T12:54:41;101452.31;;;24.39;47.35
65880;BME280;52661;51.364;6.054;2023-06-26T12:57:07;101454.84;;;24.19;49.94
65880;BME280;52661;51.364;6.054;2023-06-26T12:59:34;101445.09;;;23.51;50.73